createdAt,value
2023-01-27T00:01:05.130Z,4.50
2023-01-27T00:03:32.294Z,4.50
2023-01-27T00:06:19.488Z,4.50
2023-01-27T00:09:06.602Z,4.60
2023-01-27T00:12:12.090Z,4.50
2023-01-27T00:14:59.256Z,4.50
2023-01-27T00:17:46.284Z,4.50
2023-01-27T00:20:51.959Z,4.50
2023-01-27T00:23:57.657Z,4.50
2023-01-27T00:26:44.943Z,4.50
2023-01-27T00:29:32.850Z,4.50
2023-01-27T00:32:39.521Z,4.40
2023-01-27T00:35:30.015Z,4.40
2023-01-27T00:38:17.176Z,4.40
2023-01-27T00:41:19.789Z,4.40
2023-01-27T00:44:13.003Z,4.40
2023-01-27T00:47:00.714Z,4.40
2023-01-27T00:49:47.933Z,4.40
2023-01-27T00:52:35.269Z,4.30
2023-01-27T00:55:22.463Z,4.30
2023-01-27T00:58:13.832Z,4.30
2023-01-27T01:01:06.962Z,4.30
2023-01-27T01:03:54.231Z,4.30
2023-01-27T01:06:41.597Z,4.30
2023-01-27T01:09:29.081Z,4.30
2023-01-27T01:12:16.547Z,4.20
2023-01-27T01:15:03.956Z,4.20
2023-01-27T01:17:51.042Z,4.20
2023-01-27T01:20:42.368Z,4.20
2023-01-27T01:23:29.585Z,4.20
2023-01-27T01:26:18.031Z,4.20
2023-01-27T01:29:05.232Z,4.20
2023-01-27T01:31:52.304Z,4.20
2023-01-27T01:34:39.633Z,4.20
2023-01-27T01:37:26.717Z,4.10
2023-01-27T01:40:14.991Z,4.20
2023-01-27T01:43:03.999Z,4.10
2023-01-27T01:45:57.519Z,4.20
2023-01-27T01:48:56.360Z,4.20
2023-01-27T01:51:48.202Z,4.20
2023-01-27T01:54:47.061Z,4.20
2023-01-27T01:57:37.659Z,4.20
2023-01-27T02:00:24.506Z,4.20
2023-01-27T02:03:10.387Z,4.20
2023-01-27T02:05:56.270Z,4.20
2023-01-27T02:08:46.228Z,4.20
2023-01-27T02:11:32.354Z,4.20
2023-01-27T02:14:18.511Z,4.20
2023-01-27T02:17:05.505Z,4.20
2023-01-27T02:20:05.458Z,4.20
2023-01-27T02:23:22.227Z,4.20
2023-01-27T02:26:22.809Z,4.20
2023-01-27T02:29:15.885Z,4.20
2023-01-27T02:32:01.740Z,4.20
2023-01-27T02:34:47.642Z,4.20
2023-01-27T02:37:34.089Z,4.20
2023-01-27T02:40:22.149Z,4.20
2023-01-27T02:43:08.590Z,4.20
2023-01-27T02:45:55.236Z,4.20
2023-01-27T02:48:41.399Z,4.20
2023-01-27T02:51:27.635Z,4.90
2023-01-27T02:54:13.762Z,4.20
2023-01-27T02:57:00.337Z,4.20
2023-01-27T02:59:48.580Z,4.20
2023-01-27T03:02:34.355Z,4.20
2023-01-27T03:05:21.546Z,4.20
2023-01-27T03:08:07.916Z,4.20
2023-01-27T03:10:55.949Z,4.20
2023-01-27T03:13:41.779Z,4.20
2023-01-27T03:16:46.085Z,4.20
2023-01-27T03:19:31.780Z,4.30
2023-01-27T03:22:17.392Z,4.20
2023-01-27T03:25:03.561Z,4.20
2023-01-27T03:27:49.565Z,4.20
2023-01-27T03:30:44.059Z,4.20
2023-01-27T03:33:53.735Z,4.30
2023-01-27T03:37:07.832Z,4.20
2023-01-27T03:40:12.423Z,4.20
2023-01-27T03:43:16.699Z,4.20
2023-01-27T03:46:19.029Z,4.20
2023-01-27T03:49:04.781Z,4.10
2023-01-27T03:51:50.441Z,4.20
2023-01-27T03:54:35.869Z,4.10
2023-01-27T03:57:21.786Z,4.10
2023-01-27T04:00:09.336Z,4.10
2023-01-27T04:03:17.268Z,4.10
2023-01-27T04:06:27.549Z,4.10
2023-01-27T04:09:23.725Z,4.10
2023-01-27T04:12:10.428Z,4.00
2023-01-27T04:14:56.156Z,4.00
2023-01-27T04:17:42.761Z,4.00
2023-01-27T04:20:28.385Z,4.00
2023-01-27T04:23:13.830Z,4.00
2023-01-27T04:26:00.351Z,4.00
2023-01-27T04:28:46.991Z,4.00
2023-01-27T04:31:32.879Z,4.00
2023-01-27T04:34:20.012Z,4.00
2023-01-27T04:37:07.879Z,4.00
2023-01-27T04:39:53.626Z,4.00
2023-01-27T04:42:39.239Z,4.00
2023-01-27T04:45:25.479Z,3.90
2023-01-27T04:48:11.037Z,3.90
2023-01-27T04:50:56.823Z,4.00
2023-01-27T04:53:43.563Z,4.00
2023-01-27T04:56:33.576Z,4.00
2023-01-27T04:59:19.557Z,4.00
2023-01-27T05:02:05.054Z,4.00
2023-01-27T05:04:50.866Z,4.00
2023-01-27T05:07:36.704Z,3.90
2023-01-27T05:10:22.575Z,3.90
2023-01-27T05:13:08.312Z,3.90
2023-01-27T05:16:12.663Z,3.90
2023-01-27T05:18:57.976Z,3.90
2023-01-27T05:21:44.384Z,3.90
2023-01-27T05:24:30.622Z,4.00
2023-01-27T05:27:17.740Z,4.00
2023-01-27T05:30:03.995Z,4.00
2023-01-27T05:32:49.347Z,4.00
2023-01-27T05:35:35.454Z,4.00
2023-01-27T05:38:21.051Z,4.00
2023-01-27T05:41:09.770Z,4.00
2023-01-27T05:43:56.137Z,3.90
2023-01-27T05:46:42.642Z,3.90
2023-01-27T05:49:28.613Z,3.90
2023-01-27T05:52:14.143Z,3.80
2023-01-27T05:54:59.725Z,3.80
2023-01-27T05:57:45.130Z,3.80
2023-01-27T06:00:31.199Z,3.80
2023-01-27T06:03:17.538Z,3.80
2023-01-27T06:06:04.093Z,3.80
2023-01-27T06:08:50.563Z,3.80
2023-01-27T06:11:36.368Z,3.80
2023-01-27T06:14:22.092Z,3.80
2023-01-27T06:17:07.508Z,3.80
2023-01-27T06:19:53.245Z,3.70
2023-01-27T06:22:39.121Z,3.70
2023-01-27T06:25:25.236Z,3.70
2023-01-27T06:28:19.915Z,3.70
2023-01-27T06:31:16.393Z,3.70
2023-01-27T06:34:02.096Z,3.70
2023-01-27T06:36:48.610Z,3.70
2023-01-27T06:39:34.629Z,3.70
2023-01-27T06:42:20.815Z,3.70
2023-01-27T06:45:07.196Z,3.70
2023-01-27T06:47:59.137Z,3.70
2023-01-27T06:50:44.851Z,3.70
2023-01-27T06:53:32.483Z,3.70
2023-01-27T06:56:18.687Z,3.70
2023-01-27T06:59:04.877Z,3.70
2023-01-27T07:01:54.340Z,3.70
2023-01-27T07:04:40.181Z,3.70
2023-01-27T07:07:26.141Z,3.60
2023-01-27T07:10:12.469Z,3.60
2023-01-27T07:13:10.714Z,3.50
2023-01-27T07:15:57.135Z,3.50
2023-01-27T07:18:42.926Z,3.50
2023-01-27T07:21:28.788Z,3.50
2023-01-27T07:24:14.876Z,3.50
2023-01-27T07:27:00.615Z,3.50
2023-01-27T07:29:46.555Z,3.60
2023-01-27T07:32:32.816Z,3.60
2023-01-27T07:35:18.911Z,3.60
2023-01-27T07:38:06.371Z,3.60
2023-01-27T07:40:52.464Z,3.60
2023-01-27T07:43:38.488Z,3.50
2023-01-27T07:46:26.862Z,3.50
2023-01-27T07:49:12.582Z,3.50
2023-01-27T07:51:58.383Z,3.40
2023-01-27T07:54:44.364Z,3.40
2023-01-27T07:57:30.040Z,3.40
2023-01-27T08:00:16.557Z,3.40
2023-01-27T08:03:03.017Z,3.40
2023-01-27T08:05:49.142Z,3.40
2023-01-27T08:08:38.021Z,3.40
2023-01-27T08:11:23.537Z,3.40
2023-01-27T08:14:09.162Z,3.40
2023-01-27T08:16:55.236Z,3.50
2023-01-27T08:19:41.229Z,3.50
2023-01-27T08:22:29.128Z,3.50
2023-01-27T08:25:15.332Z,3.50
2023-01-27T08:28:01.416Z,3.50
2023-01-27T08:30:48.534Z,3.60
2023-01-27T08:33:35.700Z,3.60
2023-01-27T08:36:23.553Z,3.60
2023-01-27T08:39:10.903Z,3.70
2023-01-27T08:41:56.668Z,3.70
2023-01-27T08:44:42.711Z,3.70
2023-01-27T08:47:28.157Z,3.70
2023-01-27T08:50:14.774Z,3.80
2023-01-27T08:53:01.641Z,3.80
2023-01-27T08:55:47.624Z,3.90
2023-01-27T08:58:33.790Z,3.90
2023-01-27T09:01:21.162Z,4.00
2023-01-27T09:04:07.404Z,4.00
2023-01-27T09:06:54.199Z,4.00
2023-01-27T09:09:42.689Z,4.10
2023-01-27T09:12:28.801Z,4.10
2023-01-27T09:15:15.758Z,4.10
2023-01-27T09:18:01.676Z,4.10
2023-01-27T09:20:47.878Z,4.20
2023-01-27T09:23:34.639Z,4.20
2023-01-27T09:26:21.989Z,4.30
2023-01-27T09:29:07.766Z,4.30
2023-01-27T09:31:53.581Z,4.30
2023-01-27T09:34:39.916Z,4.40
2023-01-27T09:37:27.830Z,4.40
2023-01-27T09:40:56.185Z,4.40
2023-01-27T09:43:58.157Z,4.50
2023-01-27T09:47:07.524Z,4.40
2023-01-27T09:50:50.577Z,4.50
2023-01-27T09:53:50.349Z,4.50
2023-01-27T09:56:50.494Z,4.50
2023-01-27T10:00:00.553Z,4.50
2023-01-27T10:03:02.618Z,4.60
2023-01-27T10:06:45.497Z,4.60
2023-01-27T10:09:52.573Z,4.70
2023-01-27T10:12:59.754Z,4.80
2023-01-27T10:16:08.278Z,4.90
2023-01-27T10:19:01.919Z,5.00
2023-01-27T10:22:20.253Z,5.00
2023-01-27T10:25:41.622Z,5.00
2023-01-27T10:28:30.977Z,5.00
2023-01-27T10:31:33.456Z,5.00
2023-01-27T10:34:34.978Z,5.10
2023-01-27T10:37:35.244Z,5.10
2023-01-27T10:40:42.359Z,5.10
2023-01-27T10:43:56.688Z,5.10
2023-01-27T10:47:01.559Z,5.00
2023-01-27T10:49:53.777Z,4.90
2023-01-27T10:52:47.868Z,5.00
2023-01-27T10:56:05.183Z,5.00
2023-01-27T10:59:04.165Z,5.00
2023-01-27T11:02:24.521Z,5.10
2023-01-27T11:05:18.467Z,5.20
2023-01-27T11:08:17.750Z,5.30
2023-01-27T11:11:28.202Z,5.40
2023-01-27T11:14:30.434Z,5.40
2023-01-27T11:18:05.504Z,5.40
2023-01-27T11:20:54.588Z,5.20
2023-01-27T11:23:46.798Z,5.20
2023-01-27T11:26:44.979Z,5.10
2023-01-27T11:29:49.071Z,5.20
2023-01-27T11:32:49.078Z,5.10
2023-01-27T11:35:34.951Z,4.90
2023-01-27T11:38:23.209Z,4.80
2023-01-27T11:41:09.400Z,4.80
2023-01-27T11:43:55.348Z,4.90
2023-01-27T11:46:42.068Z,5.00
2023-01-27T11:49:33.639Z,5.10
2023-01-27T11:52:22.642Z,5.20
2023-01-27T11:55:14.415Z,5.30
2023-01-27T11:58:25.584Z,5.30
2023-01-27T12:01:20.821Z,5.20
2023-01-27T12:04:17.791Z,5.20
2023-01-27T12:07:13.186Z,5.20
2023-01-27T12:09:59.280Z,5.30
2023-01-27T12:12:45.612Z,5.30
2023-01-27T12:15:32.767Z,5.50
2023-01-27T12:18:19.129Z,5.80
2023-01-27T12:21:08.436Z,6.00
2023-01-27T12:23:56.592Z,6.00
2023-01-27T12:26:45.140Z,6.10
2023-01-27T12:29:43.100Z,6.10
2023-01-27T12:32:42.356Z,6.20
2023-01-27T12:35:34.046Z,7.00
2023-01-27T12:38:25.325Z,8.10
2023-01-27T12:41:20.867Z,8.30
2023-01-27T12:44:18.553Z,7.90
2023-01-27T12:47:25.730Z,7.20
2023-01-27T12:50:33.863Z,6.70
2023-01-27T12:53:23.360Z,6.40
2023-01-27T12:56:18.932Z,6.20
2023-01-27T12:59:04.647Z,6.00
2023-01-27T13:02:22.833Z,5.90
2023-01-27T13:05:16.023Z,5.80
2023-01-27T13:08:01.789Z,5.70
2023-01-27T13:10:58.439Z,5.70
2023-01-27T13:13:51.584Z,5.60
2023-01-27T13:16:38.313Z,5.70
2023-01-27T13:19:36.706Z,5.60
2023-01-27T13:22:25.000Z,5.50
2023-01-27T13:25:23.563Z,5.50
2023-01-27T13:28:18.790Z,5.60
2023-01-27T13:31:12.724Z,5.80
2023-01-27T13:34:11.032Z,5.80
2023-01-27T13:37:08.101Z,5.80
2023-01-27T13:40:19.688Z,5.90
2023-01-27T13:43:24.232Z,5.80
2023-01-27T13:46:25.794Z,5.80
2023-01-27T13:49:29.067Z,6.00
2023-01-27T13:52:14.857Z,6.00
2023-01-27T13:55:00.398Z,5.90
2023-01-27T13:58:02.084Z,5.70
2023-01-27T14:00:59.225Z,5.50
2023-01-27T14:04:11.399Z,5.10
2023-01-27T14:07:07.553Z,4.80
2023-01-27T14:10:25.190Z,4.60
2023-01-27T14:13:49.163Z,4.60
2023-01-27T14:17:09.865Z,4.70
2023-01-27T14:20:29.078Z,5.00
2023-01-27T14:23:41.431Z,4.90
2023-01-27T14:26:48.768Z,4.70
2023-01-27T14:29:56.080Z,4.70
2023-01-27T14:32:52.808Z,4.80
2023-01-27T14:36:09.972Z,4.80
2023-01-27T14:39:23.751Z,4.80
2023-01-27T14:42:22.770Z,4.70
2023-01-27T14:45:25.663Z,4.60
2023-01-27T14:48:38.729Z,4.50
2023-01-27T14:51:39.449Z,4.30
2023-01-27T14:54:52.497Z,4.20
2023-01-27T14:57:49.044Z,4.20
2023-01-27T15:00:53.060Z,4.30
2023-01-27T15:04:05.957Z,4.30
2023-01-27T15:07:30.319Z,4.30
2023-01-27T15:10:26.140Z,4.30
2023-01-27T15:13:27.847Z,4.40
2023-01-27T15:16:42.963Z,4.40
2023-01-27T15:19:54.679Z,4.40
2023-01-27T15:23:00.167Z,4.30
2023-01-27T15:25:54.261Z,4.20
2023-01-27T15:28:42.600Z,4.10
2023-01-27T15:31:31.184Z,4.00
2023-01-27T15:34:23.272Z,3.80
2023-01-27T15:37:21.156Z,3.70
2023-01-27T15:40:16.963Z,3.60
2023-01-27T15:43:05.198Z,3.50
2023-01-27T15:45:56.269Z,3.50
2023-01-27T15:48:42.366Z,3.40
2023-01-27T15:51:31.791Z,3.40
2023-01-27T15:54:32.068Z,3.40
2023-01-27T15:57:38.230Z,3.40
2023-01-27T16:00:28.808Z,3.50
2023-01-27T16:03:28.572Z,3.50
2023-01-27T16:06:17.954Z,3.50
2023-01-27T16:09:07.691Z,3.50
2023-01-27T16:12:02.057Z,3.50
2023-01-27T16:14:48.013Z,3.80
2023-01-27T16:17:34.595Z,3.50
2023-01-27T16:20:28.488Z,3.60
2023-01-27T16:23:41.466Z,3.60
2023-01-27T16:26:41.078Z,3.60
2023-01-27T16:29:37.084Z,3.70
2023-01-27T16:32:30.105Z,3.60
2023-01-27T16:35:20.523Z,3.70
2023-01-27T16:38:38.189Z,3.70
2023-01-27T16:41:29.738Z,3.70
2023-01-27T16:44:33.932Z,3.70
2023-01-27T16:47:30.505Z,3.70
2023-01-27T16:50:42.630Z,3.80
2023-01-27T16:53:28.454Z,3.80
2023-01-27T16:56:27.814Z,3.80
2023-01-27T16:59:22.409Z,3.80
2023-01-27T17:02:32.036Z,3.80
2023-01-27T17:05:19.319Z,3.70
2023-01-27T17:08:23.665Z,3.70
2023-01-27T17:11:25.580Z,3.70
2023-01-27T17:14:29.992Z,3.50
2023-01-27T17:17:19.588Z,3.40
2023-01-27T17:20:08.149Z,3.30
2023-01-27T17:22:55.421Z,3.20
2023-01-27T17:25:41.996Z,3.20
2023-01-27T17:28:28.546Z,3.20
2023-01-27T17:31:20.261Z,3.10
2023-01-27T17:34:06.085Z,3.10
2023-01-27T17:37:19.842Z,3.10
2023-01-27T17:40:16.080Z,3.00
2023-01-27T17:43:01.703Z,3.00
2023-01-27T17:45:47.553Z,2.90
2023-01-27T17:48:37.824Z,2.90
2023-01-27T17:51:27.828Z,3.00
2023-01-27T17:54:37.534Z,3.10
2023-01-27T17:57:32.536Z,3.10
2023-01-27T18:00:29.330Z,3.20
2023-01-27T18:03:24.073Z,3.20
2023-01-27T18:06:14.057Z,3.30
2023-01-27T18:09:15.852Z,3.30
2023-01-27T18:12:06.738Z,3.30
2023-01-27T18:14:52.450Z,3.30
2023-01-27T18:17:38.320Z,3.30
2023-01-27T18:20:34.104Z,3.30
2023-01-27T18:23:31.552Z,3.30
2023-01-27T18:26:30.680Z,3.30
2023-01-27T18:29:32.182Z,3.20
2023-01-27T18:32:23.790Z,3.20
2023-01-27T18:35:30.926Z,3.10
2023-01-27T18:38:27.959Z,3.10
2023-01-27T18:41:27.741Z,3.10
2023-01-27T18:44:14.657Z,3.10
2023-01-27T18:47:33.029Z,3.00
2023-01-27T18:50:25.027Z,3.00
2023-01-27T18:53:17.592Z,2.90
2023-01-27T18:56:04.452Z,2.90
2023-01-27T18:58:50.239Z,2.80
2023-01-27T19:01:36.247Z,2.80
2023-01-27T19:04:23.589Z,2.70
2023-01-27T19:07:17.661Z,2.70
2023-01-27T19:10:13.018Z,2.50
2023-01-27T19:13:01.390Z,2.40
2023-01-27T19:15:53.991Z,2.30
2023-01-27T19:18:42.093Z,2.30
2023-01-27T19:21:28.341Z,2.20
2023-01-27T19:24:14.091Z,2.10
2023-01-27T19:27:01.026Z,2.00
2023-01-27T19:29:48.199Z,1.90
2023-01-27T19:32:34.169Z,1.80
2023-01-27T19:35:20.311Z,1.80
2023-01-27T19:38:07.699Z,1.90
2023-01-27T19:40:53.704Z,1.90
2023-01-27T19:43:39.309Z,2.00
2023-01-27T19:46:25.488Z,2.00
2023-01-27T19:49:19.389Z,2.00
2023-01-27T19:52:05.150Z,2.00
2023-01-27T19:54:50.762Z,2.00
2023-01-27T19:57:36.921Z,2.10
2023-01-27T20:00:30.547Z,2.00
2023-01-27T20:03:17.093Z,2.00
2023-01-27T20:06:03.082Z,1.90
2023-01-27T20:08:54.950Z,1.90
2023-01-27T20:11:43.075Z,1.90
2023-01-27T20:14:29.534Z,1.80
2023-01-27T20:17:15.600Z,1.90
2023-01-27T20:20:01.435Z,2.00
2023-01-27T20:22:47.531Z,2.10
2023-01-27T20:25:34.212Z,2.10
2023-01-27T20:28:20.280Z,2.10
2023-01-27T20:31:11.821Z,2.10
2023-01-27T20:33:59.670Z,2.10
2023-01-27T20:36:45.340Z,2.30
2023-01-27T20:39:31.547Z,2.30
2023-01-27T20:42:17.441Z,2.80
2023-01-27T20:45:05.152Z,2.40
2023-01-27T20:47:53.250Z,2.50
2023-01-27T20:50:39.034Z,2.60
2023-01-27T20:53:25.019Z,2.60
2023-01-27T20:56:13.304Z,2.70
2023-01-27T20:58:58.872Z,2.60
2023-01-27T21:01:46.122Z,2.70
2023-01-27T21:04:32.183Z,2.70
2023-01-27T21:07:18.121Z,2.90
2023-01-27T21:10:05.794Z,2.90
2023-01-27T21:12:52.561Z,2.90
2023-01-27T21:15:39.572Z,3.00
2023-01-27T21:18:26.959Z,3.00
2023-01-27T21:21:25.758Z,3.00
2023-01-27T21:24:11.365Z,2.90
2023-01-27T21:26:57.413Z,3.00
2023-01-27T21:29:44.001Z,3.00
2023-01-27T21:32:29.906Z,3.00
2023-01-27T21:35:16.408Z,3.00
2023-01-27T21:38:02.408Z,3.00
2023-01-27T21:40:47.687Z,3.00
2023-01-27T21:43:52.066Z,3.00
2023-01-27T21:46:39.655Z,3.00
2023-01-27T21:49:25.981Z,3.00
2023-01-27T21:52:11.895Z,3.00
2023-01-27T21:54:58.796Z,3.00
2023-01-27T21:57:45.823Z,3.00
2023-01-27T22:00:32.000Z,3.10
2023-01-27T22:03:17.608Z,3.10
2023-01-27T22:06:05.990Z,3.10
2023-01-27T22:08:52.297Z,3.10
2023-01-27T22:11:38.051Z,3.30
2023-01-27T22:14:23.522Z,3.10
2023-01-27T22:17:09.563Z,3.10
2023-01-27T22:19:55.514Z,3.10
2023-01-27T22:22:43.471Z,3.10
2023-01-27T22:25:29.719Z,3.10
2023-01-27T22:28:15.517Z,3.10
2023-01-27T22:31:02.380Z,3.10
2023-01-27T22:33:48.127Z,3.10
2023-01-27T22:36:34.050Z,3.10
2023-01-27T22:39:19.962Z,3.10
2023-01-27T22:42:05.847Z,3.10
2023-01-27T22:44:52.271Z,3.10
2023-01-27T22:47:38.988Z,3.10
2023-01-27T22:50:24.911Z,3.10
2023-01-27T22:53:11.508Z,3.10
2023-01-27T22:56:03.123Z,3.10
2023-01-27T22:58:49.328Z,3.10
2023-01-27T23:01:35.333Z,3.00
2023-01-27T23:04:21.241Z,3.00
2023-01-27T23:07:06.877Z,3.00
2023-01-27T23:09:52.755Z,3.00
2023-01-27T23:12:38.890Z,3.10
2023-01-27T23:15:25.038Z,3.00
2023-01-27T23:18:11.501Z,3.00
2023-01-27T23:21:04.320Z,3.00
2023-01-27T23:23:50.994Z,2.90
2023-01-27T23:26:37.072Z,3.00
2023-01-27T23:29:25.563Z,3.00
2023-01-27T23:32:12.276Z,2.90
2023-01-27T23:34:57.912Z,2.80
2023-01-27T23:37:43.641Z,2.80
2023-01-27T23:40:30.013Z,2.80
2023-01-27T23:43:15.946Z,2.80
2023-01-27T23:46:01.760Z,2.80
2023-01-27T23:48:52.184Z,2.90
2023-01-27T23:51:38.148Z,2.90
2023-01-27T23:54:24.118Z,2.90
2023-01-27T23:57:10.201Z,3.00
2023-01-27T23:59:55.901Z,3.00
